createdAt,value
2022-08-27T00:01:59.732Z,20.22
2022-08-27T00:04:28.513Z,20.16
2022-08-27T00:06:57.446Z,20.17
2022-08-27T00:09:27.338Z,20.20
2022-08-27T00:11:55.885Z,19.45
2022-08-27T00:14:26.052Z,20.09
2022-08-27T00:16:53.927Z,20.10
2022-08-27T00:19:22.460Z,19.92
2022-08-27T00:21:50.724Z,19.99
2022-08-27T00:24:18.721Z,20.00
2022-08-27T00:26:46.933Z,19.86
2022-08-27T00:29:15.070Z,19.97
2022-08-27T00:31:44.666Z,19.91
2022-08-27T00:34:13.331Z,19.90
2022-08-27T00:36:41.700Z,19.51
2022-08-27T00:39:10.155Z,19.73
2022-08-27T00:41:39.205Z,19.88
2022-08-27T00:44:09.472Z,19.88
2022-08-27T00:46:42.204Z,19.88
2022-08-27T00:49:18.279Z,19.95
2022-08-27T00:51:53.067Z,19.90
2022-08-27T00:54:23.029Z,19.99
2022-08-27T00:56:52.060Z,20.00
2022-08-27T00:59:23.896Z,20.01
2022-08-27T01:02:15.208Z,19.91
2022-08-27T01:04:47.828Z,20.07
2022-08-27T01:07:15.953Z,20.13
2022-08-27T01:09:45.271Z,20.17
2022-08-27T01:12:13.482Z,20.11
2022-08-27T01:14:43.043Z,20.08
2022-08-27T01:17:12.340Z,20.01
2022-08-27T01:19:45.951Z,19.95
2022-08-27T01:22:23.472Z,19.84
2022-08-27T01:24:56.144Z,19.56
2022-08-27T01:27:27.313Z,19.38
2022-08-27T01:29:55.971Z,19.75
2022-08-27T01:32:28.034Z,19.86
2022-08-27T01:34:57.507Z,19.80
2022-08-27T01:37:27.726Z,19.88
2022-08-27T01:39:58.972Z,19.86
2022-08-27T01:42:32.228Z,19.88
2022-08-27T01:45:05.624Z,19.85
2022-08-27T01:47:34.759Z,19.76
2022-08-27T01:50:04.182Z,19.71
2022-08-27T01:52:32.600Z,19.69
2022-08-27T01:55:02.253Z,19.70
2022-08-27T01:57:31.070Z,19.66
2022-08-27T01:59:59.365Z,19.67
2022-08-27T02:02:27.517Z,19.71
2022-08-27T02:04:55.723Z,19.55
2022-08-27T02:07:23.850Z,19.68
2022-08-27T02:09:52.293Z,19.50
2022-08-27T02:12:21.794Z,19.38
2022-08-27T02:14:49.929Z,19.52
2022-08-27T02:17:18.049Z,19.44
2022-08-27T02:19:46.575Z,19.40
2022-08-27T02:22:15.097Z,19.41
2022-08-27T02:24:43.212Z,19.39
2022-08-27T02:27:11.683Z,18.63
2022-08-27T02:29:41.207Z,19.00
2022-08-27T02:32:22.406Z,19.29
2022-08-27T02:34:57.436Z,19.21
2022-08-27T02:37:25.674Z,19.33
2022-08-27T02:39:53.744Z,19.28
2022-08-27T02:42:21.871Z,19.15
2022-08-27T02:44:51.405Z,19.11
2022-08-27T02:47:19.661Z,18.97
2022-08-27T02:49:48.008Z,18.85
2022-08-27T02:52:16.960Z,19.02
2022-08-27T02:54:54.117Z,18.99
2022-08-27T02:57:22.319Z,18.82
2022-08-27T02:59:52.136Z,18.76
2022-08-27T03:02:21.226Z,18.97
2022-08-27T03:04:50.206Z,19.00
2022-08-27T03:07:19.536Z,18.81
2022-08-27T03:09:47.879Z,18.95
2022-08-27T03:12:16.365Z,19.00
2022-08-27T03:14:44.733Z,18.54
2022-08-27T03:17:31.690Z,19.03
2022-08-27T03:20:01.644Z,19.07
2022-08-27T03:22:29.786Z,19.05
2022-08-27T03:24:57.818Z,19.03
2022-08-27T03:27:25.959Z,18.99
2022-08-27T03:29:54.474Z,19.01
2022-08-27T03:32:24.191Z,18.93
2022-08-27T03:34:52.310Z,19.05
2022-08-27T03:37:20.328Z,19.09
2022-08-27T03:39:48.360Z,19.14
2022-08-27T03:42:16.924Z,18.92
2022-08-27T03:44:45.115Z,19.34
2022-08-27T03:47:13.171Z,19.26
2022-08-27T03:49:42.798Z,19.40
2022-08-27T03:52:11.123Z,19.24
2022-08-27T03:54:39.609Z,19.29
2022-08-27T03:57:08.382Z,19.18
2022-08-27T03:59:36.468Z,19.18
2022-08-27T04:02:05.035Z,19.10
2022-08-27T04:04:33.145Z,19.19
2022-08-27T04:07:02.676Z,19.20
2022-08-27T04:09:30.713Z,18.51
2022-08-27T04:11:58.908Z,18.99
2022-08-27T04:14:27.623Z,18.89
2022-08-27T04:16:56.611Z,18.95
2022-08-27T04:19:28.010Z,18.86
2022-08-27T04:22:02.645Z,18.89
2022-08-27T04:24:32.817Z,18.84
2022-08-27T04:27:01.833Z,18.81
2022-08-27T04:29:30.349Z,18.93
2022-08-27T04:31:59.224Z,18.75
2022-08-27T04:34:27.913Z,18.89
2022-08-27T04:36:57.827Z,18.86
2022-08-27T04:39:28.403Z,18.93
2022-08-27T04:41:59.418Z,18.35
2022-08-27T04:44:29.389Z,18.97
2022-08-27T04:46:59.383Z,18.99
2022-08-27T04:49:28.518Z,19.07
2022-08-27T04:51:56.740Z,18.81
2022-08-27T04:54:32.347Z,18.72
2022-08-27T04:57:03.265Z,19.01
2022-08-27T04:59:31.232Z,18.93
2022-08-27T05:01:59.941Z,18.94
2022-08-27T05:04:31.553Z,18.87
2022-08-27T05:07:00.665Z,18.78
2022-08-27T05:09:28.707Z,18.92
2022-08-27T05:11:57.161Z,18.92
2022-08-27T05:14:30.082Z,18.78
2022-08-27T05:16:59.030Z,18.81
2022-08-27T05:19:27.047Z,18.89
2022-08-27T05:21:55.495Z,18.86
2022-08-27T05:24:24.039Z,18.84
2022-08-27T05:26:52.301Z,18.90
2022-08-27T05:29:20.576Z,18.98
2022-08-27T05:31:49.966Z,18.80
2022-08-27T05:34:21.952Z,18.95
2022-08-27T05:36:54.134Z,18.89
2022-08-27T05:39:22.180Z,18.91
2022-08-27T05:41:52.440Z,18.95
2022-08-27T05:47:10.212Z,18.84
2022-08-27T05:49:38.909Z,19.01
2022-08-27T05:52:10.753Z,18.93
2022-08-27T05:54:39.830Z,18.55
2022-08-27T05:57:08.285Z,18.98
2022-08-27T05:59:54.176Z,18.95
2022-08-27T06:02:24.337Z,18.84
2022-08-27T06:04:53.542Z,18.95
2022-08-27T06:07:21.714Z,19.02
2022-08-27T06:09:49.940Z,18.86
2022-08-27T06:12:18.223Z,18.95
2022-08-27T06:14:46.217Z,19.03
2022-08-27T06:17:14.363Z,18.96
2022-08-27T06:19:43.883Z,18.85
2022-08-27T06:22:12.059Z,18.85
2022-08-27T06:24:41.955Z,18.81
2022-08-27T06:27:11.735Z,18.86
2022-08-27T06:29:40.164Z,18.97
2022-08-27T06:32:09.239Z,19.14
2022-08-27T06:34:38.031Z,19.08
2022-08-27T06:37:07.843Z,18.99
2022-08-27T06:39:37.550Z,18.96
2022-08-27T06:42:06.402Z,18.97
2022-08-27T06:44:35.364Z,19.09
2022-08-27T06:47:04.693Z,19.21
2022-08-27T06:49:33.631Z,19.16
2022-08-27T06:52:01.834Z,19.07
2022-08-27T06:54:31.332Z,19.07
2022-08-27T06:57:00.203Z,18.94
2022-08-27T06:59:29.127Z,19.00
2022-08-27T07:01:57.290Z,19.04
2022-08-27T07:04:32.655Z,19.23
2022-08-27T07:07:02.282Z,18.89
2022-08-27T07:09:33.079Z,19.12
2022-08-27T07:12:01.672Z,19.24
2022-08-27T07:14:32.970Z,19.29
2022-08-27T07:17:04.199Z,19.19
2022-08-27T07:19:32.326Z,19.21
2022-08-27T07:22:00.328Z,19.21
2022-08-27T07:24:28.386Z,19.03
2022-08-27T07:26:58.919Z,19.17
2022-08-27T07:29:31.701Z,19.15
2022-08-27T07:32:00.171Z,19.09
2022-08-27T07:34:28.522Z,19.00
2022-08-27T07:36:56.714Z,18.86
2022-08-27T07:39:24.939Z,18.90
2022-08-27T07:42:10.229Z,19.00
2022-08-27T07:44:39.696Z,18.89
2022-08-27T07:47:08.805Z,18.97
2022-08-27T07:49:37.669Z,18.94
2022-08-27T07:52:06.694Z,18.75
2022-08-27T07:54:35.035Z,19.20
2022-08-27T07:57:03.106Z,19.40
2022-08-27T07:59:31.161Z,19.30
2022-08-27T08:02:00.918Z,19.48
2022-08-27T08:04:28.947Z,19.26
2022-08-27T08:06:57.673Z,19.53
2022-08-27T08:09:25.775Z,19.40
2022-08-27T08:11:55.055Z,19.45
2022-08-27T08:14:23.402Z,19.75
2022-08-27T08:16:51.747Z,19.78
2022-08-27T08:19:21.226Z,19.78
2022-08-27T08:21:49.262Z,19.72
2022-08-27T08:24:18.377Z,19.78
2022-08-27T08:26:46.585Z,19.48
2022-08-27T08:29:17.923Z,19.49
2022-08-27T08:31:49.881Z,19.44
2022-08-27T08:34:19.339Z,19.74
2022-08-27T08:36:54.049Z,19.64
2022-08-27T08:39:23.473Z,19.61
2022-08-27T08:41:53.627Z,19.68
2022-08-27T08:44:32.081Z,19.62
2022-08-27T08:47:04.769Z,19.55
2022-08-27T08:49:48.197Z,19.45
2022-08-27T08:52:31.558Z,19.51
2022-08-27T08:55:09.864Z,19.60
2022-08-27T08:57:43.439Z,19.65
2022-08-27T09:00:14.832Z,19.51
2022-08-27T09:02:50.402Z,19.38
2022-08-27T09:05:19.063Z,19.58
2022-08-27T09:08:09.898Z,19.61
2022-08-27T09:10:49.795Z,19.81
2022-08-27T09:13:24.158Z,19.85
2022-08-27T09:15:56.640Z,19.68
2022-08-27T09:18:28.133Z,19.90
2022-08-27T09:21:07.444Z,20.10
2022-08-27T09:23:46.210Z,20.29
2022-08-27T09:26:28.276Z,20.18
2022-08-27T09:29:20.384Z,20.06
2022-08-27T09:31:55.778Z,20.11
2022-08-27T09:34:24.757Z,19.97
2022-08-27T09:37:00.578Z,20.09
2022-08-27T09:39:36.423Z,20.13
2022-08-27T09:42:06.018Z,20.30
2022-08-27T09:44:34.417Z,20.58
2022-08-27T09:47:04.919Z,20.95
2022-08-27T09:49:36.808Z,21.16
2022-08-27T09:52:05.337Z,21.15
2022-08-27T09:54:45.444Z,21.44
2022-08-27T09:57:28.841Z,21.08
2022-08-27T09:59:59.469Z,21.44
2022-08-27T10:02:28.156Z,21.50
2022-08-27T10:04:59.630Z,21.49
2022-08-27T10:07:36.676Z,21.47
2022-08-27T10:10:12.111Z,21.37
2022-08-27T10:12:51.831Z,21.23
2022-08-27T10:15:20.083Z,21.30
2022-08-27T10:18:01.299Z,21.27
2022-08-27T10:20:40.438Z,21.16
2022-08-27T10:23:19.420Z,21.30
2022-08-27T10:26:00.359Z,21.30
2022-08-27T10:28:46.586Z,21.40
2022-08-27T10:31:22.585Z,21.36
2022-08-27T10:34:04.534Z,21.10
2022-08-27T10:36:44.680Z,20.98
2022-08-27T10:39:26.485Z,20.97
2022-08-27T10:42:04.753Z,20.83
2022-08-27T10:44:47.372Z,20.89
2022-08-27T10:47:30.689Z,20.61
2022-08-27T10:50:06.578Z,20.52
2022-08-27T10:52:39.367Z,20.57
2022-08-27T10:55:15.485Z,20.58
2022-08-27T10:58:07.890Z,20.46
2022-08-27T11:00:43.128Z,20.54
2022-08-27T11:03:15.281Z,20.64
2022-08-27T11:05:47.096Z,20.51
2022-08-27T11:08:20.906Z,20.59
2022-08-27T11:10:52.882Z,20.57
2022-08-27T11:13:34.296Z,20.71
2022-08-27T11:16:07.333Z,20.70
2022-08-27T11:18:43.213Z,20.64
2022-08-27T11:21:15.862Z,20.36
2022-08-27T11:23:47.788Z,20.40
2022-08-27T11:26:16.427Z,20.01
2022-08-27T11:28:50.492Z,20.11
2022-08-27T11:31:24.016Z,20.16
2022-08-27T11:34:03.272Z,19.74
2022-08-27T11:37:06.776Z,19.86
2022-08-27T11:40:04.244Z,19.93
2022-08-27T11:42:39.178Z,19.84
2022-08-27T11:45:21.171Z,20.21
2022-08-27T11:47:55.510Z,20.26
2022-08-27T11:50:25.737Z,20.19
2022-08-27T11:52:58.438Z,20.10
2022-08-27T11:55:31.378Z,20.25
2022-08-27T11:58:24.258Z,20.36
2022-08-27T12:00:54.888Z,20.55
2022-08-27T12:03:30.332Z,20.75
2022-08-27T12:06:26.665Z,20.83
2022-08-27T12:09:06.461Z,20.85
2022-08-27T12:11:45.492Z,19.93
2022-08-27T12:14:28.764Z,20.48
2022-08-27T12:17:05.228Z,20.44
2022-08-27T12:19:46.020Z,20.44
2022-08-27T12:22:30.094Z,20.43
2022-08-27T12:25:00.248Z,20.46
2022-08-27T12:27:34.475Z,20.38
2022-08-27T12:30:07.699Z,20.19
2022-08-27T12:32:44.375Z,20.21
2022-08-27T12:35:16.869Z,20.32
2022-08-27T12:37:49.016Z,20.31
2022-08-27T12:40:28.921Z,20.34
2022-08-27T12:43:07.888Z,20.40
2022-08-27T12:45:45.281Z,20.42
2022-08-27T12:48:18.733Z,20.43
2022-08-27T12:50:53.307Z,20.41
2022-08-27T12:53:32.297Z,19.85
2022-08-27T12:56:14.426Z,20.46
2022-08-27T12:58:54.374Z,20.67
2022-08-27T13:01:43.021Z,20.55
2022-08-27T13:04:21.885Z,20.76
2022-08-27T13:06:50.887Z,20.90
2022-08-27T13:09:29.371Z,20.42
2022-08-27T13:11:59.648Z,20.89
2022-08-27T13:14:29.805Z,20.73
2022-08-27T13:17:00.652Z,20.82
2022-08-27T13:19:33.754Z,20.66
2022-08-27T13:22:05.161Z,20.85
2022-08-27T13:24:35.422Z,20.94
2022-08-27T13:27:07.397Z,20.48
2022-08-27T13:29:36.315Z,21.01
2022-08-27T13:32:05.682Z,20.99
2022-08-27T13:34:38.256Z,21.18
2022-08-27T13:37:08.954Z,21.20
2022-08-27T13:39:39.149Z,21.12
2022-08-27T13:42:08.470Z,21.05
2022-08-27T13:44:38.868Z,21.10
2022-08-27T13:47:09.267Z,21.42
2022-08-27T13:49:41.896Z,21.20
2022-08-27T13:52:24.165Z,21.18
2022-08-27T13:54:59.260Z,21.30
2022-08-27T13:57:30.798Z,20.62
2022-08-27T14:00:10.490Z,21.28
2022-08-27T14:02:38.734Z,21.64
2022-08-27T14:05:13.439Z,21.70
2022-08-27T14:07:47.502Z,21.43
2022-08-27T14:10:32.527Z,21.70
2022-08-27T14:13:03.885Z,21.51
2022-08-27T14:15:34.617Z,21.47
2022-08-27T14:18:04.904Z,21.52
2022-08-27T14:20:35.544Z,21.36
2022-08-27T14:23:04.665Z,21.38
2022-08-27T14:25:34.537Z,21.48
2022-08-27T14:28:02.789Z,21.34
2022-08-27T14:30:31.470Z,21.29
2022-08-27T14:33:00.516Z,21.48
2022-08-27T14:35:29.760Z,21.44
2022-08-27T14:38:02.535Z,21.14
2022-08-27T14:40:31.428Z,21.01
2022-08-27T14:43:01.341Z,20.92
2022-08-27T14:45:29.638Z,21.26
2022-08-27T14:48:02.198Z,21.06
2022-08-27T14:50:30.845Z,21.31
2022-08-27T14:53:00.869Z,21.15
2022-08-27T14:55:30.918Z,21.28
2022-08-27T14:57:59.158Z,21.29
2022-08-27T15:00:30.441Z,21.01
2022-08-27T15:02:58.982Z,21.20
2022-08-27T15:05:28.071Z,21.41
2022-08-27T15:07:58.150Z,21.14
2022-08-27T15:10:28.278Z,21.43
2022-08-27T15:12:56.914Z,21.42
2022-08-27T15:15:25.555Z,21.17
2022-08-27T15:17:53.758Z,21.09
2022-08-27T15:20:21.899Z,21.17
2022-08-27T15:22:53.190Z,21.18
2022-08-27T15:25:22.384Z,21.29
2022-08-27T15:27:51.989Z,21.15
2022-08-27T15:30:27.689Z,21.28
2022-08-27T15:32:56.649Z,21.13
2022-08-27T15:35:28.427Z,21.25
2022-08-27T15:37:59.258Z,21.21
2022-08-27T15:40:30.034Z,21.14
2022-08-27T15:43:03.761Z,21.15
2022-08-27T15:45:33.513Z,21.17
2022-08-27T15:48:02.411Z,21.12
2022-08-27T15:50:31.916Z,20.98
2022-08-27T15:53:02.711Z,20.87
2022-08-27T15:55:33.565Z,21.08
2022-08-27T15:58:03.505Z,21.13
2022-08-27T16:00:34.417Z,20.84
2022-08-27T16:03:04.721Z,21.10
2022-08-27T16:05:35.064Z,21.15
2022-08-27T16:08:03.837Z,21.19
2022-08-27T16:10:32.405Z,21.01
2022-08-27T16:13:00.479Z,20.99
2022-08-27T16:15:30.669Z,20.98
2022-08-27T16:17:59.749Z,20.94
2022-08-27T16:20:28.731Z,20.79
2022-08-27T16:22:56.968Z,20.86
2022-08-27T16:25:25.349Z,20.92
2022-08-27T16:27:53.853Z,20.96
2022-08-27T16:30:23.030Z,20.83
2022-08-27T16:32:53.247Z,20.61
2022-08-27T16:35:21.536Z,20.86
2022-08-27T16:37:49.640Z,20.91
2022-08-27T16:40:18.193Z,21.00
2022-08-27T16:42:49.939Z,20.83
2022-08-27T16:45:21.856Z,21.03
2022-08-27T16:48:08.241Z,21.08
2022-08-27T16:50:37.985Z,20.84
2022-08-27T16:53:09.205Z,21.00
2022-08-27T16:55:39.106Z,21.17
2022-08-27T16:58:10.423Z,21.09
2022-08-27T17:00:39.411Z,20.92
2022-08-27T17:03:09.230Z,20.65
2022-08-27T17:05:38.807Z,21.03
2022-08-27T17:08:06.978Z,20.94
2022-08-27T17:10:46.382Z,20.88
2022-08-27T17:13:16.675Z,19.57
2022-08-27T17:15:48.729Z,21.06
2022-08-27T17:18:20.976Z,21.08
2022-08-27T17:20:50.378Z,20.96
2022-08-27T17:23:23.050Z,21.00
2022-08-27T17:25:51.131Z,20.96
2022-08-27T17:28:19.665Z,20.87
2022-08-27T17:30:48.088Z,20.98
2022-08-27T17:33:21.416Z,20.91
2022-08-27T17:35:50.762Z,20.96
2022-08-27T17:38:18.833Z,20.73
2022-08-27T17:40:47.385Z,20.75
2022-08-27T17:43:21.273Z,20.69
2022-08-27T17:45:50.058Z,19.81
2022-08-27T17:48:22.681Z,20.73
2022-08-27T17:50:55.536Z,20.25
2022-08-27T17:53:23.952Z,20.70
2022-08-27T17:55:52.190Z,20.65
2022-08-27T17:58:20.666Z,20.80
2022-08-27T18:00:48.817Z,20.77
2022-08-27T18:03:21.118Z,20.87
2022-08-27T18:05:50.102Z,20.79
2022-08-27T18:08:20.585Z,20.60
2022-08-27T18:10:49.680Z,20.00
2022-08-27T18:13:18.930Z,20.59
2022-08-27T18:15:48.516Z,20.48
2022-08-27T18:18:16.817Z,20.66
2022-08-27T18:20:45.193Z,20.62
2022-08-27T18:23:13.740Z,20.50
2022-08-27T18:25:45.541Z,20.51
2022-08-27T18:28:15.080Z,20.31
2022-08-27T18:30:44.742Z,20.51
2022-08-27T18:33:13.758Z,20.49
2022-08-27T18:35:42.846Z,20.49
2022-08-27T18:38:10.987Z,20.39
2022-08-27T18:40:41.937Z,20.30
2022-08-27T18:43:12.024Z,20.26
2022-08-27T18:45:40.174Z,20.17
2022-08-27T18:48:14.672Z,20.20
2022-08-27T18:50:46.424Z,20.26
2022-08-27T18:53:16.721Z,20.16
2022-08-27T18:55:45.485Z,20.15
2022-08-27T18:58:15.291Z,20.14
2022-08-27T19:00:46.463Z,20.12
2022-08-27T19:03:18.861Z,20.05
2022-08-27T19:05:48.361Z,19.94
2022-08-27T19:08:23.316Z,19.53
2022-08-27T19:10:51.461Z,19.99
2022-08-27T19:13:21.205Z,19.77
2022-08-27T19:15:57.677Z,19.97
2022-08-27T19:18:28.666Z,19.81
2022-08-27T19:20:57.296Z,19.59
2022-08-27T19:23:26.371Z,19.75
2022-08-27T19:25:55.246Z,19.49
2022-08-27T19:28:29.613Z,19.71
2022-08-27T19:30:58.907Z,19.60
2022-08-27T19:33:26.961Z,19.62
2022-08-27T19:35:55.023Z,19.65
2022-08-27T19:38:24.734Z,19.73
2022-08-27T19:40:52.957Z,19.73
2022-08-27T19:43:21.000Z,19.82
2022-08-27T19:45:50.784Z,19.70
2022-08-27T19:48:18.922Z,19.56
2022-08-27T19:50:46.912Z,19.51
2022-08-27T19:53:18.943Z,19.88
2022-08-27T19:55:47.261Z,19.83
2022-08-27T19:58:16.654Z,19.76
2022-08-27T20:00:46.370Z,19.76
2022-08-27T20:03:15.909Z,19.52
2022-08-27T20:05:44.563Z,19.81
2022-08-27T20:08:13.100Z,19.85
2022-08-27T20:10:41.773Z,19.68
2022-08-27T20:13:12.425Z,19.76
2022-08-27T20:15:40.729Z,19.67
2022-08-27T20:18:09.377Z,19.83
2022-08-27T20:20:39.668Z,18.64
2022-08-27T20:23:08.407Z,19.63
2022-08-27T20:25:37.612Z,19.50
2022-08-27T20:28:37.353Z,19.53
2022-08-27T20:30:57.452Z,18.80
2022-08-27T20:33:27.221Z,19.39
2022-08-27T20:35:57.822Z,19.30
2022-08-27T20:38:26.204Z,19.19
2022-08-27T20:40:54.279Z,19.20
2022-08-27T20:43:22.494Z,19.32
2022-08-27T20:45:50.835Z,19.29
2022-08-27T20:48:19.051Z,19.01
2022-08-27T20:50:47.730Z,18.95
2022-08-27T20:53:17.197Z,19.15
2022-08-27T20:55:45.657Z,19.18
2022-08-27T20:58:31.385Z,19.00
2022-08-27T21:01:00.380Z,18.55
2022-08-27T21:03:28.706Z,18.96
2022-08-27T21:05:56.744Z,18.77
2022-08-27T21:08:26.193Z,18.89
2022-08-27T21:10:57.821Z,18.82
2022-08-27T21:13:28.005Z,18.73
2022-08-27T21:15:56.466Z,18.84
2022-08-27T21:18:29.952Z,18.85
2022-08-27T21:20:58.656Z,18.81
2022-08-27T21:23:29.160Z,18.55
2022-08-27T21:25:57.424Z,18.59
2022-08-27T21:28:25.551Z,18.41
2022-08-27T21:30:53.580Z,18.44
2022-08-27T21:33:21.852Z,18.59
2022-08-27T21:35:49.899Z,18.72
2022-08-27T21:38:18.041Z,18.79
2022-08-27T21:40:47.608Z,18.67
2022-08-27T21:43:15.689Z,18.68
2022-08-27T21:45:43.950Z,18.67
2022-08-27T21:48:12.661Z,18.21
2022-08-27T21:50:40.700Z,18.48
2022-08-27T21:53:08.719Z,18.49
2022-08-27T21:55:36.699Z,18.59
2022-08-27T21:58:06.216Z,18.62
2022-08-27T22:00:42.099Z,18.01
2022-08-27T22:03:13.868Z,18.57
2022-08-27T22:05:43.590Z,18.30
2022-08-27T22:08:13.468Z,18.32
2022-08-27T22:10:45.659Z,18.44
2022-08-27T22:13:16.481Z,18.35
2022-08-27T22:15:44.673Z,18.42
2022-08-27T22:18:13.674Z,17.37
2022-08-27T22:20:42.136Z,17.46
2022-08-27T22:23:13.158Z,18.31
2022-08-27T22:25:42.634Z,18.05
2022-08-27T22:28:12.065Z,18.15
2022-08-27T22:30:42.408Z,18.16
2022-08-27T22:33:10.486Z,18.16
2022-08-27T22:35:38.885Z,18.03
2022-08-27T22:38:07.460Z,17.35
2022-08-27T22:40:37.390Z,18.05
2022-08-27T22:43:05.810Z,17.72
2022-08-27T22:45:34.600Z,17.96
2022-08-27T22:48:04.819Z,17.33
2022-08-27T22:50:32.692Z,17.85
2022-08-27T22:53:00.661Z,17.79
2022-08-27T22:55:30.559Z,17.74
2022-08-27T22:57:58.574Z,17.70
2022-08-27T23:00:29.125Z,17.76
2022-08-27T23:02:57.925Z,17.57
2022-08-27T23:05:28.488Z,17.71
2022-08-27T23:08:09.841Z,17.77
2022-08-27T23:10:38.571Z,17.28
2022-08-27T23:13:07.983Z,17.70
2022-08-27T23:15:36.011Z,17.60
2022-08-27T23:18:04.119Z,17.57
2022-08-27T23:20:34.215Z,16.80
2022-08-27T23:23:02.717Z,17.56
2022-08-27T23:25:49.005Z,17.50
2022-08-27T23:28:17.633Z,17.44
2022-08-27T23:30:47.005Z,17.39
2022-08-27T23:33:15.952Z,17.30
2022-08-27T23:35:48.194Z,17.15
2022-08-27T23:38:17.143Z,17.31
2022-08-27T23:40:46.243Z,17.24
2022-08-27T23:43:14.493Z,16.93
2022-08-27T23:45:43.239Z,16.84
2022-08-27T23:48:12.151Z,17.08
2022-08-27T23:50:40.863Z,16.92
2022-08-27T23:53:10.977Z,16.85
2022-08-27T23:55:40.400Z,16.90
2022-08-27T23:58:09.343Z,16.63
